메인 페이지
METAR-TAF:

METAR-TAF

공항 :

포르드프랑스, 마르티니크

위도: 14-36N, 경도: 061-00W, 고도: 5m

현재 날씨관측

예보는 39분 전, 18:00시(UTC)에 발표되었습니다.
남동11kt
온도 29°C
습도 70%
기압 1017 hPa
시정 10km 이상
고도 1900ft 상공 구름 조금
고도 3100ft 상공 구름 보통

METAR: TFFF 221800Z AUTO 13011KT 9999 FEW019 SCT031 29/23 Q1017 NOSIG

시각: 14:39 (18:39 UTC)

예보

예보는 1 시간 39분 전, 17:00시(UTC)에 발표되었습니다.
예보 대상 시간: 22일 18시부터 23일 18시까지 (UTC)
8kt
시정 10km 이상
고도 3000ft 상공 구름 보통
확률 30% :
일시적
23일 06시부터 23일 12시까지 (UTC)
시정: 4000m
고도 1500ft 상공 구름 많음, 타워링 적운.
소나기

TAF: TFFF 221700Z 2218/2318 10008KT 9999 SCT030 PROB30 TEMPO 2306/2312 4000 SHRA BKN015TCU

4,000개 이상의 공항 관측 자료 및 예보 (METAR 및 TAF 보고).

지도상에서 검색 가능한 기상관측소가 노란 점과 빨간 점으로 표시되어 있습니다.

기상관측소 명을 보려면 표시 위로 마우스를 이동하세요.

날씨 관측과 예보를 보려면 클릭하세요.

지도 변경 : 확대하려면 엑스 표시가 있는 녹색 버튼, 축소하려면 빼기 표시가 있는 녹색 버튼, 다음 페이지의 지도를 보려면 녹색 화살표를 클릭하세요.


METAR-TAF: